Terminal Aerodrome Forecast
Issued by NWS

Home | Current Version | Previous Version | Text Only | Print | Product List | Glossary On
Versions: 1 2 3 4 5 6 7 8 9 10 11 12 13
532
FTUS43 KSGF 230520
TAFBBG
TAF
KBBG 230520Z 2306/2406 VRB04KT P6SM OVC035
     FM231000 VRB04KT P6SM SCT100
     FM231400 03007KT P6SM SCT250=

USA.gov is the U.S. government's official web portal to all federal, state and local government web resources and services.